Time;durP1;ratioP1;P1;durP2;ratioP2;P2;SDS_P1;SDS_P2;PMS_P1;PMS_P2;Temp;Humidity;BMP_temperature;BMP_pressure;BME280_temperature;BME280_humidity;BME280_pressure;Samples;Min_cycle;Max_cycle;Signal;HPM_P1;HPM_P2
2023/02/20 00:00:31;;;;;;;4.75;2.22;;;7.00;91.70;;;;;;5025611;28;20025;-68
2023/02/20 00:02:56;;;;;;;3.60;2.20;;;7.00;91.70;;;;;;5030218;28;20651;-68
2023/02/20 00:05:23;;;;;;;4.93;2.13;;;7.00;91.70;;;;;;5025979;28;20033;-68
2023/02/20 00:07:48;;;;;;;5.47;2.88;;;7.00;91.60;;;;;;5023058;28;20021;-69
2023/02/20 00:10:15;;;;;;;4.47;2.78;;;7.10;91.60;;;;;;5025244;28;20483;-69
2023/02/20 00:12:41;;;;;;;4.50;2.33;;;7.10;91.70;;;;;;5025931;28;20492;-68
2023/02/20 00:15:07;;;;;;;3.67;2.10;;;7.00;91.60;;;;;;5025094;28;20040;-69
2023/02/20 00:17:33;;;;;;;4.03;1.60;;;7.10;91.60;;;;;;5026648;28;20029;-68
2023/02/20 00:19:59;;;;;;;4.90;2.20;;;7.10;91.60;;;;;;5025257;28;20028;-68
2023/02/20 00:22:25;;;;;;;2.97;1.67;;;7.10;91.60;;;;;;5026054;28;20036;-68
2023/02/20 00:24:52;;;;;;;4.50;2.42;;;7.10;91.60;;;;;;5026049;28;20207;-68
2023/02/20 00:27:17;;;;;;;6.28;2.63;;;7.20;91.60;;;;;;5023855;28;20669;-68
2023/02/20 00:29:44;;;;;;;4.43;2.17;;;7.10;91.50;;;;;;5027808;28;20017;-68
2023/02/20 00:32:10;;;;;;;6.07;2.00;;;7.10;91.60;;;;;;5024773;28;20033;-67
2023/02/20 00:34:36;;;;;;;8.25;3.53;;;7.20;91.60;;;;;;5029475;28;20036;-68
2023/02/20 00:37:01;;;;;;;7.03;3.67;;;7.20;91.60;;;;;;5027284;28;20064;-67
2023/02/20 00:39:28;;;;;;;6.50;3.22;;;7.10;91.60;;;;;;5027369;28;20112;-67
2023/02/20 00:41:55;;;;;;;5.75;3.05;;;7.20;91.60;;;;;;5027388;28;20116;-68
2023/02/20 00:44:20;;;;;;;10.20;3.88;;;7.20;91.50;;;;;;5029822;28;20499;-68
2023/02/20 00:46:46;;;;;;;6.78;3.40;;;7.20;91.50;;;;;;5029130;28;20056;-67
2023/02/20 00:49:12;;;;;;;9.68;5.20;;;7.20;91.50;;;;;;5028321;28;20079;-67
2023/02/20 00:51:37;;;;;;;7.30;3.25;;;7.20;91.80;;;;;;5027792;28;20037;-68
2023/02/20 00:54:03;;;;;;;6.68;3.78;;;7.20;91.50;;;;;;5027469;28;20022;-68
2023/02/20 00:56:29;;;;;;;5.78;2.55;;;7.20;91.50;;;;;;5028690;28;20434;-67
2023/02/20 00:58:55;;;;;;;6.30;3.15;;;7.20;91.50;;;;;;5026507;28;20030;-68
2023/02/20 01:01:21;;;;;;;6.30;3.00;;;7.30;91.50;;;;;;5027386;28;20103;-68
2023/02/20 01:03:46;;;;;;;5.38;2.92;;;7.20;91.50;;;;;;5023550;28;20033;-67
2023/02/20 01:06:12;;;;;;;5.72;3.28;;;7.30;91.50;;;;;;5027386;28;20036;-68
2023/02/20 01:08:38;;;;;;;5.53;3.30;;;7.30;91.50;;;;;;5029608;28;20026;-68
2023/02/20 01:11:03;;;;;;;8.45;3.42;;;7.20;91.50;;;;;;5026929;28;20424;-68
2023/02/20 01:13:29;;;;;;;6.57;3.42;;;7.30;91.50;;;;;;5029132;28;20048;-68
2023/02/20 01:15:54;;;;;;;4.60;2.67;;;7.20;91.50;;;;;;5026753;28;20417;-68
2023/02/20 01:18:20;;;;;;;4.10;2.55;;;7.30;91.50;;;;;;5029521;28;20111;-68
2023/02/20 01:20:45;;;;;;;5.35;2.80;;;7.20;91.50;;;;;;5030569;28;20167;-68
2023/02/20 01:23:11;;;;;;;8.63;3.92;;;7.30;91.50;;;;;;5030096;28;20533;-68
2023/02/20 01:25:37;;;;;;;7.47;3.22;;;7.20;91.50;;;;;;5028810;28;20022;-68
2023/02/20 01:28:02;;;;;;;6.70;3.80;;;7.20;91.50;;;;;;5028702;28;20063;-68
2023/02/20 01:30:28;;;;;;;7.57;2.78;;;7.20;91.50;;;;;;5028634;28;20033;-69
2023/02/20 01:32:54;;;;;;;11.30;4.60;;;7.20;91.50;;;;;;5028741;28;20040;-68
2023/02/20 01:35:19;;;;;;;8.70;4.50;;;7.20;91.50;;;;;;5029814;28;20037;-68
2023/02/20 01:37:45;;;;;;;9.82;4.40;;;7.10;91.50;;;;;;5029216;28;20108;-69
2023/02/20 01:40:15;;;;;;;10.90;5.43;;;7.10;91.60;;;;;;5029693;28;20035;-68
2023/02/20 01:42:41;;;;;;;7.50;3.13;;;7.10;91.60;;;;;;5027632;28;21131;-68
2023/02/20 01:45:22;;;;;;;9.07;3.25;;;7.10;91.60;;;;;;5029263;28;20025;-68
2023/02/20 01:47:49;;;;;;;3.15;2.20;;;7.10;91.60;;;;;;5024562;28;21969;-68
2023/02/20 01:50:17;;;;;;;4.50;2.50;;;7.10;91.60;;;;;;5027820;28;20075;-68
2023/02/20 01:52:44;;;;;;;6.65;2.85;;;7.10;91.90;;;;;;5028233;28;20022;-68
2023/02/20 01:55:14;;;;;;;4.50;2.35;;;7.10;91.70;;;;;;5027257;28;20407;-69
2023/02/20 01:57:44;;;;;;;4.88;2.63;;;7.10;91.70;;;;;;5029367;28;20528;-69
2023/02/20 02:00:15;;;;;;;5.85;3.00;;;7.10;91.70;;;;;;5026081;28;20030;-68
2023/02/20 02:02:51;;;;;;;5.43;2.70;;;7.10;91.80;;;;;;5025840;28;20021;-68
2023/02/20 02:05:18;;;;;;;4.63;2.40;;;7.10;91.80;;;;;;5028590;28;20022;-68
2023/02/20 02:07:44;;;;;;;3.45;2.00;;;7.10;91.80;;;;;;5029225;28;20416;-69
2023/02/20 02:10:17;;;;;;;6.43;3.22;;;7.10;92.00;;;;;;5029214;28;20111;-68
2023/02/20 02:12:48;;;;;;;6.65;3.28;;;7.10;91.80;;;;;;5027778;28;20030;-68
2023/02/20 02:15:16;;;;;;;5.97;2.70;;;7.10;91.80;;;;;;5028343;28;20072;-69
2023/02/20 02:17:54;;;;;;;8.45;2.55;;;7.10;91.80;;;;;;5028060;28;20135;-68
2023/02/20 02:20:55;;;;;;;6.28;2.50;;;7.10;91.80;;;;;;5028327;28;20037;-68
2023/02/20 02:23:21;;;;;;;5.97;2.70;;;7.10;91.80;;;;;;5027585;28;20037;-68
2023/02/20 02:26:03;;;;;;;5.40;3.05;;;7.10;92.10;;;;;;5027299;28;20067;-68
2023/02/20 02:29:04;;;;;;;5.75;3.13;;;7.10;92.00;;;;;;5026490;28;20029;-68
2023/02/20 02:32:10;;;;;;;4.00;2.30;;;7.10;91.80;;;;;;4987758;28;20083;-68
2023/02/20 02:34:44;;;;;;;6.18;3.15;;;7.10;91.80;;;;;;5023296;28;20065;-68
2023/02/20 02:37:42;;;;;;;4.32;2.60;;;7.10;91.80;;;;;;5026757;28;20049;-69
2023/02/20 02:40:11;;;;;;;4.97;2.50;;;7.10;91.80;;;;;;5028587;28;20021;-68
2023/02/20 02:42:59;;;;;;;4.90;2.53;;;7.10;91.80;;;;;;5025277;28;20025;-69
2023/02/20 02:45:54;;;;;;;7.07;3.00;;;7.20;91.80;;;;;;5025621;28;20584;-68
2023/02/20 02:48:44;;;;;;;4.65;2.47;;;7.20;91.80;;;;;;5025357;28;20036;-69
2023/02/20 02:51:20;;;;;;;3.83;2.30;;;7.20;91.70;;;;;;5025049;28;20053;-69
2023/02/20 02:54:12;;;;;;;7.63;3.20;;;7.20;91.70;;;;;;5027552;28;20067;-69
2023/02/20 02:56:43;;;;;;;6.90;2.72;;;7.30;91.70;;;;;;5025429;28;20025;-68
2023/02/20 02:59:13;;;;;;;7.00;2.40;;;7.30;91.80;;;;;;5027084;28;20079;-68
2023/02/20 03:01:48;;;;;;;9.48;4.65;;;7.30;91.70;;;;;;5026890;28;20303;-69
2023/02/20 03:04:22;;;;;;;9.98;3.67;;;7.30;91.70;;;;;;5027225;28;20116;-68
2023/02/20 03:06:51;;;;;;;5.22;3.22;;;7.30;91.70;;;;;;5023145;28;20036;-68
2023/02/20 03:09:25;;;;;;;7.43;3.42;;;7.40;92.00;;;;;;5024855;28;20086;-68
2023/02/20 03:11:53;;;;;;;9.48;3.78;;;7.40;91.70;;;;;;5027478;28;20112;-69
2023/02/20 03:17:27;;;;;;;7.88;3.70;;;7.40;91.70;;;;;;5025745;28;20040;-69
2023/02/20 03:19:56;;;;;;;8.10;4.03;;;7.40;91.70;;;;;;5027061;28;20033;-69
2023/02/20 03:22:31;;;;;;;8.50;3.75;;;7.40;91.80;;;;;;5027289;28;20566;-68
2023/02/20 03:25:12;;;;;;;7.03;3.35;;;7.40;91.80;;;;;;5022696;28;20068;-68
2023/02/20 03:27:41;;;;;;;7.18;4.05;;;7.40;91.80;;;;;;5023619;28;20104;-68
2023/02/20 03:30:18;;;;;;;10.55;5.05;;;7.50;91.80;;;;;;5025874;28;20056;-68
2023/02/20 03:43:55;;;;;;;10.57;4.07;;;7.50;91.80;;;;;;5025185;28;20036;-68
2023/02/20 03:46:23;;;;;;;7.32;3.92;;;7.50;91.90;;;;;;5025147;28;20113;-66
2023/02/20 03:49:02;;;;;;;10.68;4.97;;;7.50;91.90;;;;;;5018054;28;20022;-69
2023/02/20 03:51:29;;;;;;;8.48;4.45;;;7.50;91.90;;;;;;5025008;28;20140;-69
2023/02/20 03:53:55;;;;;;;5.85;3.35;;;7.50;92.00;;;;;;5027416;28;20052;-68
2023/02/20 03:56:30;;;;;;;11.95;4.57;;;7.50;92.00;;;;;;5023926;28;20482;-69
2023/02/20 03:59:10;;;;;;;10.52;4.70;;;7.60;92.10;;;;;;5025493;28;20116;-68
2023/02/20 04:01:38;;;;;;;9.82;4.60;;;7.60;92.10;;;;;;5023740;28;20029;-69
2023/02/20 04:04:06;;;;;;;10.55;5.25;;;7.60;92.00;;;;;;5023457;28;20025;-69
2023/02/20 04:06:34;;;;;;;8.02;3.65;;;7.60;92.00;;;;;;5025996;28;20840;-68
2023/02/20 04:09:03;;;;;;;9.13;4.50;;;7.60;92.10;;;;;;5027928;28;20105;-68
2023/02/20 04:11:40;;;;;;;7.53;3.75;;;7.70;92.10;;;;;;5026264;28;20369;-68
2023/02/20 04:14:07;;;;;;;16.55;7.13;;;7.70;92.10;;;;;;5025188;28;20606;-68
2023/02/20 04:16:42;;;;;;;9.27;4.20;;;7.70;92.10;;;;;;5026293;28;20029;-68
2023/02/20 04:19:08;;;;;;;9.15;4.43;;;7.70;92.10;;;;;;5024962;28;20034;-68
2023/02/20 04:21:56;;;;;;;9.75;4.75;;;7.80;92.10;;;;;;5026121;28;20037;-68
2023/02/20 04:24:56;;;;;;;11.68;5.00;;;7.80;92.10;;;;;;5023292;28;20033;-68
2023/02/20 04:27:22;;;;;;;11.35;5.10;;;7.80;92.00;;;;;;5024382;28;20055;-69
2023/02/20 04:29:48;;;;;;;11.40;4.72;;;7.80;92.10;;;;;;5027232;28;20087;-68
2023/02/20 04:32:13;;;;;;;9.60;4.78;;;7.80;92.10;;;;;;5026779;28;20021;-69
2023/02/20 04:34:39;;;;;;;9.05;4.57;;;7.80;92.10;;;;;;5027723;28;20518;-69
2023/02/20 04:37:13;;;;;;;16.70;5.85;;;7.90;92.10;;;;;;5026531;28;20036;-68
2023/02/20 04:39:39;;;;;;;12.20;4.72;;;7.80;92.20;;;;;;5026063;28;20120;-69
2023/02/20 04:42:05;;;;;;;12.13;5.55;;;7.90;92.20;;;;;;5039702;28;20124;-69
2023/02/20 04:44:30;;;;;;;11.52;5.20;;;7.80;92.20;;;;;;5027512;28;20104;-69
2023/02/20 04:46:57;;;;;;;7.75;4.15;;;7.90;92.30;;;;;;5026787;28;20021;-69
2023/02/20 04:49:23;;;;;;;10.48;4.80;;;7.90;92.40;;;;;;5027035;28;20105;-69
2023/02/20 04:51:48;;;;;;;15.40;5.88;;;7.90;92.40;;;;;;5023114;28;20105;-69
2023/02/20 04:54:14;;;;;;;8.50;4.60;;;7.90;92.30;;;;;;5026168;28;20026;-68
2023/02/20 04:56:40;;;;;;;9.60;5.07;;;7.90;92.40;;;;;;5026386;28;20107;-69
2023/02/20 04:59:05;;;;;;;8.98;4.82;;;7.90;92.40;;;;;;5020011;28;20411;-66
2023/02/20 05:01:31;;;;;;;12.60;5.35;;;7.90;92.40;;;;;;5023520;28;20040;-66
2023/02/20 05:03:57;;;;;;;9.68;4.28;;;8.00;92.40;;;;;;5025971;28;20072;-67
2023/02/20 05:06:23;;;;;;;10.68;5.22;;;7.90;92.40;;;;;;5026480;28;20032;-67
2023/02/20 05:08:48;;;;;;;12.15;4.47;;;8.00;92.40;;;;;;5026189;28;20112;-67
2023/02/20 05:11:14;;;;;;;14.85;5.20;;;8.00;92.40;;;;;;5024581;28;20108;-67
2023/02/20 05:13:40;;;;;;;11.88;4.78;;;8.00;92.40;;;;;;5025390;28;20092;-68
2023/02/20 05:16:06;;;;;;;11.00;4.47;;;8.00;92.40;;;;;;5029629;28;20028;-67
2023/02/20 05:18:31;;;;;;;9.77;5.13;;;8.00;92.40;;;;;;5029687;28;20040;-68
2023/02/20 05:23:41;;;;;;;11.07;4.93;;;8.10;92.50;;;;;;5023914;28;20032;-67
2023/02/20 05:26:09;;;;;;;10.20;4.47;;;8.10;92.50;;;;;;5029831;28;20029;-67
2023/02/20 05:28:35;;;;;;;10.55;4.93;;;8.00;92.60;;;;;;5027405;28;20021;-67
2023/02/20 05:31:00;;;;;;;10.85;4.63;;;8.10;92.60;;;;;;5028518;28;20438;-67
2023/02/20 05:33:26;;;;;;;9.50;4.40;;;8.10;92.50;;;;;;5028498;28;20543;-67
2023/02/20 05:35:51;;;;;;;12.75;5.07;;;8.20;92.50;;;;;;5029599;28;20176;-67
2023/02/20 05:38:18;;;;;;;9.82;4.10;;;8.10;92.50;;;;;;5029804;28;20079;-66
2023/02/20 05:40:43;;;;;;;8.52;3.85;;;8.20;92.50;;;;;;5028302;28;20488;-66
2023/02/20 05:43:09;;;;;;;10.98;4.22;;;8.20;92.40;;;;;;5028577;28;20040;-68
2023/02/20 05:45:34;;;;;;;8.75;4.03;;;8.20;92.40;;;;;;5029405;28;20021;-66
2023/02/20 05:48:00;;;;;;;6.05;2.90;;;8.20;92.40;;;;;;5029318;28;20108;-66
2023/02/20 05:50:25;;;;;;;10.48;4.13;;;8.30;92.40;;;;;;5028356;28;20033;-66
2023/02/20 05:52:51;;;;;;;9.05;4.25;;;8.30;92.40;;;;;;5028443;28;20021;-67
2023/02/20 05:55:16;;;;;;;10.82;4.70;;;8.30;92.40;;;;;;5028221;28;20029;-66
2023/02/20 05:57:42;;;;;;;8.82;4.30;;;8.30;92.40;;;;;;5023677;28;20416;-66
2023/02/20 06:00:09;;;;;;;12.38;4.82;;;8.30;92.40;;;;;;5027820;28;20487;-68
2023/02/20 06:02:34;;;;;;;9.82;4.35;;;8.30;92.40;;;;;;5028549;28;20022;-68
2023/02/20 06:05:00;;;;;;;11.25;4.40;;;8.30;92.40;;;;;;5027978;28;20029;-66
2023/02/20 06:07:25;;;;;;;12.02;4.78;;;8.30;92.40;;;;;;5029263;28;20033;-68
2023/02/20 06:09:51;;;;;;;10.13;4.38;;;8.40;92.50;;;;;;5028918;28;20023;-68
2023/02/20 06:12:16;;;;;;;6.32;3.28;;;8.40;92.40;;;;;;5026852;28;20022;-68
2023/02/20 06:14:42;;;;;;;14.18;5.15;;;8.40;92.40;;;;;;5030280;28;20484;-67
2023/02/20 06:17:08;;;;;;;10.15;4.35;;;8.40;92.30;;;;;;5028222;28;20037;-66
2023/02/20 06:19:33;;;;;;;14.98;5.95;;;8.40;92.40;;;;;;5028064;28;20396;-66
2023/02/20 06:21:59;;;;;;;12.30;3.70;;;8.40;92.50;;;;;;5027716;28;20061;-66
2023/02/20 06:24:25;;;;;;;12.43;5.20;;;8.40;92.40;;;;;;5028637;28;20088;-67
2023/02/20 06:26:51;;;;;;;15.90;5.93;;;8.50;92.40;;;;;;5027931;28;20049;-66
2023/02/20 06:29:17;;;;;;;7.90;4.10;;;8.50;92.40;;;;;;5029042;28;20496;-67
2023/02/20 06:31:43;;;;;;;19.65;6.25;;;8.50;92.40;;;;;;5026670;28;20357;-66
2023/02/20 06:34:09;;;;;;;11.52;4.55;;;8.50;92.40;;;;;;5029014;28;20080;-66
2023/02/20 06:36:38;;;;;;;7.28;3.63;;;8.50;92.40;;;;;;5028816;28;20104;-66
2023/02/20 06:39:05;;;;;;;8.98;4.22;;;8.50;92.60;;;;;;5027088;28;20018;-66
2023/02/20 06:41:31;;;;;;;15.20;4.82;;;8.60;92.60;;;;;;5026802;28;20404;-65
2023/02/20 06:43:56;;;;;;;16.98;5.13;;;8.60;92.40;;;;;;5029072;28;20030;-66
2023/02/20 06:46:22;;;;;;;10.43;4.75;;;8.60;92.40;;;;;;5028757;28;20140;-66
2023/02/20 06:48:50;;;;;;;10.13;4.70;;;8.60;92.40;;;;;;5028008;28;20030;-66
2023/02/20 06:51:18;;;;;;;11.93;4.32;;;8.60;92.50;;;;;;5026087;28;20112;-66
2023/02/20 06:53:44;;;;;;;7.40;3.63;;;8.60;92.50;;;;;;5029968;28;20125;-66
2023/02/20 06:56:14;;;;;;;8.65;4.05;;;8.60;92.40;;;;;;5030093;28;20112;-66
2023/02/20 06:58:40;;;;;;;11.98;4.68;;;8.60;92.40;;;;;;5031831;28;20025;-66
2023/02/20 07:01:07;;;;;;;13.23;4.65;;;8.60;92.40;;;;;;5028724;28;20090;-66
2023/02/20 07:03:32;;;;;;;12.02;4.68;;;8.70;92.40;;;;;;5025195;28;20021;-66
2023/02/20 07:05:58;;;;;;;10.10;4.30;;;8.70;92.40;;;;;;5027641;28;20041;-66
2023/02/20 07:08:23;;;;;;;14.18;5.53;;;8.70;92.40;;;;;;5028688;28;20029;-66
2023/02/20 07:10:49;;;;;;;9.65;3.58;;;8.70;92.50;;;;;;5029040;28;20052;-66
2023/02/20 07:13:14;;;;;;;10.65;3.97;;;8.70;92.50;;;;;;5026401;28;20036;-66
2023/02/20 07:15:40;;;;;;;10.10;4.25;;;8.70;92.40;;;;;;5031114;28;20065;-66
2023/02/20 07:18:06;;;;;;;8.57;3.65;;;8.70;92.40;;;;;;5027134;28;20030;-67
2023/02/20 07:20:31;;;;;;;9.60;3.50;;;8.80;92.40;;;;;;5029851;28;20033;-67
2023/02/20 07:22:57;;;;;;;9.45;3.95;;;8.80;92.70;;;;;;5026624;28;20815;-66
2023/02/20 07:25:23;;;;;;;13.23;5.28;;;8.80;92.40;;;;;;5030291;28;20133;-67
2023/02/20 07:27:49;;;;;;;10.55;3.83;;;8.80;92.40;;;;;;5029715;28;20108;-66
2023/02/20 07:30:14;;;;;;;9.38;4.60;;;8.70;92.40;;;;;;5026287;28;20607;-66
2023/02/20 07:32:40;;;;;;;10.77;4.45;;;8.80;92.40;;;;;;5026783;28;20701;-66
2023/02/20 07:35:06;;;;;;;10.85;4.20;;;8.80;92.40;;;;;;5028430;28;20030;-67
2023/02/20 07:37:32;;;;;;;15.93;4.90;;;8.80;92.40;;;;;;5025414;28;20029;-67
2023/02/20 07:39:57;;;;;;;10.40;4.40;;;8.80;92.30;;;;;;5026131;28;20027;-66
2023/02/20 07:42:23;;;;;;;12.07;4.30;;;8.80;92.30;;;;;;5029335;28;20057;-66
2023/02/20 07:44:48;;;;;;;11.85;5.10;;;8.90;92.40;;;;;;5028245;28;20087;-67
2023/02/20 07:47:14;;;;;;;8.35;3.38;;;8.90;92.70;;;;;;5027994;28;20033;-66
2023/02/20 07:49:40;;;;;;;12.07;5.20;;;8.90;92.40;;;;;;5026714;28;20033;-66
2023/02/20 07:52:06;;;;;;;15.80;5.47;;;8.90;92.40;;;;;;5027869;28;20071;-66
2023/02/20 07:54:31;;;;;;;13.00;4.85;;;8.90;92.70;;;;;;5028607;28;20626;-66
2023/02/20 07:56:57;;;;;;;10.00;4.38;;;8.90;92.40;;;;;;5027941;28;20082;-66
2023/02/20 07:59:23;;;;;;;11.18;4.38;;;8.90;92.30;;;;;;5024727;28;20033;-67
2023/02/20 08:01:48;;;;;;;12.38;5.38;;;8.90;92.40;;;;;;5023030;28;20403;-66
2023/02/20 08:04:15;;;;;;;9.82;4.80;;;8.90;92.40;;;;;;5021086;28;20029;-67
2023/02/20 08:06:40;;;;;;;13.20;4.57;;;9.00;92.40;;;;;;5025897;28;20061;-66
2023/02/20 08:09:06;;;;;;;9.77;4.30;;;8.90;92.30;;;;;;5025967;28;20082;-66
2023/02/20 08:11:33;;;;;;;11.05;4.72;;;9.00;92.30;;;;;;5030449;28;20536;-66
2023/02/20 08:13:59;;;;;;;9.32;4.80;;;9.00;92.30;;;;;;5029927;28;20028;-66
2023/02/20 08:16:25;;;;;;;8.00;3.53;;;9.00;92.30;;;;;;5025478;28;20022;-67
2023/02/20 08:18:52;;;;;;;9.00;4.10;;;9.00;92.30;;;;;;5033695;28;20033;-67
2023/02/20 08:21:18;;;;;;;9.25;4.25;;;9.00;92.30;;;;;;5026279;28;20025;-68
2023/02/20 08:23:43;;;;;;;9.13;3.55;;;9.10;92.30;;;;;;5027076;28;20030;-68
2023/02/20 08:26:09;;;;;;;6.57;3.53;;;9.10;92.30;;;;;;5028502;28;20038;-67
2023/02/20 08:28:35;;;;;;;8.32;3.72;;;9.10;92.30;;;;;;5026546;28;20024;-67
2023/02/20 08:31:01;;;;;;;11.20;4.22;;;9.10;92.30;;;;;;5030740;28;20104;-67
2023/02/20 08:33:26;;;;;;;9.32;3.65;;;9.20;92.30;;;;;;5027326;28;20060;-67
2023/02/20 08:35:54;;;;;;;8.10;3.92;;;9.20;92.20;;;;;;5024959;28;20063;-67
2023/02/20 08:38:28;;;;;;;11.02;5.57;;;9.20;92.20;;;;;;5028805;28;20057;-67
2023/02/20 08:40:53;;;;;;;9.73;4.45;;;9.20;92.20;;;;;;5021334;28;20029;-67
2023/02/20 08:43:19;;;;;;;8.27;3.85;;;9.20;92.20;;;;;;5026733;28;20388;-67
2023/02/20 08:45:45;;;;;;;9.77;4.47;;;9.30;92.20;;;;;;5025290;28;20124;-67
2023/02/20 08:48:10;;;;;;;14.65;5.15;;;9.30;92.20;;;;;;5024860;28;20038;-67
2023/02/20 08:50:36;;;;;;;9.52;4.13;;;9.30;92.20;;;;;;5030020;28;20088;-67
2023/02/20 08:53:02;;;;;;;11.10;4.65;;;9.30;92.20;;;;;;5030594;28;20547;-67
2023/02/20 08:55:27;;;;;;;9.35;4.05;;;9.30;92.20;;;;;;5029624;28;20395;-67
2023/02/20 08:57:54;;;;;;;9.35;4.00;;;9.40;92.20;;;;;;5031915;28;20057;-67
2023/02/20 09:00:20;;;;;;;10.30;4.10;;;9.40;92.10;;;;;;5031227;28;20030;-67
2023/02/20 09:02:46;;;;;;;9.52;4.10;;;9.40;92.10;;;;;;5029313;28;20033;-67
2023/02/20 09:05:12;;;;;;;13.43;4.55;;;9.40;92.00;;;;;;5029372;28;20029;-67
2023/02/20 09:07:38;;;;;;;10.27;4.03;;;9.50;92.10;;;;;;5026438;28;20542;-67
2023/02/20 09:10:04;;;;;;;11.43;4.20;;;9.50;92.10;;;;;;5029369;28;20021;-67
2023/02/20 09:12:31;;;;;;;13.75;5.32;;;9.50;92.40;;;;;;5027969;28;20026;-67
2023/02/20 09:14:59;;;;;;;9.70;4.28;;;9.50;92.10;;;;;;5032670;28;20049;-67
2023/02/20 09:17:28;;;;;;;10.35;4.70;;;9.60;92.10;;;;;;5031897;28;20026;-67
2023/02/20 09:19:54;;;;;;;10.20;4.43;;;9.60;92.00;;;;;;5030959;28;20021;-67
2023/02/20 09:22:24;;;;;;;12.80;4.68;;;9.60;92.00;;;;;;5030607;28;20090;-67
2023/02/20 09:24:50;;;;;;;15.73;6.10;;;9.60;91.90;;;;;;5030646;28;20068;-67
2023/02/20 09:27:16;;;;;;;10.23;4.32;;;9.70;91.90;;;;;;5031860;28;20541;-67
2023/02/20 09:29:43;;;;;;;7.57;3.40;;;9.70;91.90;;;;;;5027840;28;20108;-67
2023/02/20 09:32:09;;;;;;;10.15;4.53;;;9.70;92.00;;;;;;5031756;28;20017;-67
2023/02/20 09:34:34;;;;;;;12.40;3.88;;;9.70;91.90;;;;;;5033109;28;20395;-67
2023/02/20 09:37:00;;;;;;;8.05;3.25;;;9.70;92.00;;;;;;5031368;28;20108;-67
2023/02/20 09:39:26;;;;;;;9.00;3.50;;;9.70;92.00;;;;;;5028411;28;20029;-67
2023/02/20 09:42:08;;;;;;;10.20;3.90;;;9.70;92.00;;;;;;5031207;28;20053;-67
2023/02/20 09:44:55;;;;;;;8.18;3.25;;;9.70;92.00;;;;;;5028723;28;20385;-67
2023/02/20 09:47:50;;;;;;;10.05;4.13;;;9.70;92.00;;;;;;5038769;28;20516;-67
2023/02/20 09:50:42;;;;;;;11.05;2.85;;;9.70;92.00;;;;;;5030241;28;20033;-67
2023/02/20 09:53:31;;;;;;;11.77;3.85;;;9.70;92.00;;;;;;5032403;28;20058;-67
2023/02/20 09:56:00;;;;;;;7.45;2.85;;;9.70;92.10;;;;;;5037352;28;20029;-67
2023/02/20 09:58:53;;;;;;;12.85;4.53;;;9.70;92.10;;;;;;5028526;28;20029;-67
2023/02/20 10:01:22;;;;;;;7.60;3.53;;;9.60;92.10;;;;;;5027316;28;20053;-67
2023/02/20 10:03:53;;;;;;;6.13;2.80;;;9.60;92.20;;;;;;5029027;28;20093;-67
2023/02/20 10:06:22;;;;;;;5.45;2.83;;;9.60;92.20;;;;;;5031384;28;20041;-67
2023/02/20 10:08:49;;;;;;;10.98;3.45;;;9.60;92.30;;;;;;5031012;28;20029;-66
2023/02/20 10:11:35;;;;;;;7.65;3.00;;;9.60;92.30;;;;;;5029108;28;20021;-67
2023/02/20 10:14:20;;;;;;;8.88;3.33;;;9.70;92.30;;;;;;5032190;28;20036;-67
2023/02/20 10:16:56;;;;;;;10.88;4.15;;;9.70;92.20;;;;;;5029620;28;20022;-66
2023/02/20 10:19:37;;;;;;;7.55;3.28;;;9.60;92.20;;;;;;5030323;28;20029;-67
2023/02/20 10:22:21;;;;;;;7.35;3.03;;;9.60;92.30;;;;;;5023588;28;20037;-67
2023/02/20 10:24:55;;;;;;;9.30;3.17;;;9.70;92.20;;;;;;5031593;28;20026;-67
2023/02/20 10:27:55;;;;;;;6.95;3.13;;;9.70;92.20;;;;;;5029433;28;20021;-67
2023/02/20 10:30:44;;;;;;;7.80;2.78;;;9.70;92.20;;;;;;5033361;28;20496;-67
2023/02/20 10:33:23;;;;;;;6.35;2.88;;;9.70;92.20;;;;;;5031457;28;20103;-67
2023/02/20 10:36:09;;;;;;;6.43;2.92;;;9.70;92.30;;;;;;5031095;28;20045;-67
2023/02/20 10:38:45;;;;;;;5.90;2.90;;;9.60;92.30;;;;;;5028590;28;20021;-67
2023/02/20 10:41:18;;;;;;;3.60;2.15;;;9.60;92.30;;;;;;5032551;28;20029;-67
2023/02/20 10:43:52;;;;;;;7.38;2.20;;;9.70;92.30;;;;;;5029766;28;20026;-67
2023/02/20 10:46:25;;;;;;;6.43;2.33;;;9.70;92.30;;;;;;5031982;28;20063;-67
2023/02/20 10:48:56;;;;;;;7.57;2.35;;;9.70;92.30;;;;;;5028689;28;20525;-67
2023/02/20 10:51:36;;;;;;;6.03;1.65;;;9.70;92.30;;;;;;5032208;28;20072;-67
2023/02/20 10:54:42;;;;;;;4.72;2.47;;;9.70;92.40;;;;;;5030443;28;20021;-67
2023/02/20 10:57:24;;;;;;;7.75;2.58;;;9.70;92.40;;;;;;5028049;28;20068;-67
2023/02/20 11:00:09;;;;;;;6.22;2.50;;;9.70;92.30;;;;;;5030116;28;20515;-67
2023/02/20 11:02:40;;;;;;;4.65;2.53;;;9.70;92.40;;;;;;5031165;28;20053;-67
2023/02/20 11:05:15;;;;;;;5.72;2.25;;;9.70;92.40;;;;;;5029988;28;20036;-67
2023/02/20 11:07:41;;;;;;;4.70;2.03;;;9.70;92.40;;;;;;5029179;28;20033;-67
2023/02/20 11:10:07;;;;;;;7.20;2.95;;;9.80;92.40;;;;;;5032046;28;20021;-67
2023/02/20 11:12:39;;;;;;;4.68;2.67;;;9.80;92.30;;;;;;5030555;28;20026;-67
2023/02/20 11:15:15;;;;;;;7.68;2.92;;;9.80;92.30;;;;;;5029793;28;20025;-67
2023/02/20 11:17:41;;;;;;;5.97;2.65;;;9.80;92.30;;;;;;5031541;28;20021;-67
2023/02/20 11:20:45;;;;;;;5.78;2.47;;;9.80;92.20;;;;;;5029381;28;20029;-67
2023/02/20 11:23:40;;;;;;;4.70;2.80;;;9.80;92.30;;;;;;5030038;28;20046;-67
2023/02/20 11:26:35;;;;;;;6.40;2.92;;;9.80;92.30;;;;;;5029407;28;20109;-67
2023/02/20 11:29:13;;;;;;;8.40;2.17;;;9.90;92.30;;;;;;5027950;28;20535;-67
2023/02/20 11:31:40;;;;;;;5.07;1.98;;;9.90;92.30;;;;;;5032344;28;20029;-67
2023/02/20 11:34:18;;;;;;;7.75;2.75;;;9.90;92.30;;;;;;5031445;28;20078;-67
2023/02/20 11:36:55;;;;;;;5.65;2.03;;;9.90;92.30;;;;;;5031588;28;20024;-67
2023/02/20 11:39:25;;;;;;;3.63;1.70;;;9.90;92.30;;;;;;5031621;28;20488;-67
2023/02/20 11:42:11;;;;;;;6.85;2.75;;;9.90;92.30;;;;;;5027569;28;20036;-67
2023/02/20 11:44:37;;;;;;;4.32;1.80;;;9.90;92.20;;;;;;5023799;28;20025;-67
2023/02/20 11:47:23;;;;;;;5.80;2.67;;;9.90;92.20;;;;;;5031931;28;20020;-67
2023/02/20 11:49:49;;;;;;;5.32;1.95;;;9.90;92.20;;;;;;5030676;28;20036;-67
2023/02/20 11:52:21;;;;;;;4.07;1.80;;;9.90;92.30;;;;;;5027586;28;20022;-67
2023/02/20 11:54:47;;;;;;;;;;;9.90;92.20;;;;;;5032530;28;20026;-67
2023/02/20 11:57:27;;;;;;;4.60;2.55;;;9.90;92.20;;;;;;5031505;28;19905;-67
2023/02/20 12:00:18;;;;;;;4.45;1.85;;;9.90;92.20;;;;;;5030951;28;20108;-67
2023/02/20 12:02:53;;;;;;;5.33;1.90;;;9.90;92.30;;;;;;5030460;28;20017;-67
2023/02/20 12:05:20;;;;;;;4.18;2.20;;;9.90;92.20;;;;;;5028021;28;20511;-66
2023/02/20 12:07:51;;;;;;;6.07;2.17;;;9.90;92.20;;;;;;5028677;28;20026;-68
2023/02/20 12:10:38;;;;;;;2.47;1.50;;;9.90;92.20;;;;;;5030396;28;20476;-66
2023/02/20 12:13:06;;;;;;;3.22;1.85;;;10.00;92.20;;;;;;5033268;28;20631;-66
2023/02/20 12:15:31;;;;;;;6.07;1.75;;;10.00;92.10;;;;;;5050231;28;20041;-67
2023/02/20 12:18:02;;;;;;;3.85;2.20;;;10.00;92.20;;;;;;5050035;28;20194;-67
2023/02/20 12:20:29;;;;;;;2.63;1.55;;;10.00;92.10;;;;;;5050377;28;20025;-67
2023/02/20 12:23:13;;;;;;;3.60;2.20;;;10.00;92.10;;;;;;5035277;28;20068;-66
2023/02/20 12:25:55;;;;;;;4.80;2.10;;;10.00;92.10;;;;;;5020958;28;20081;-68
2023/02/20 12:28:58;;;;;;;5.15;1.90;;;10.00;92.10;;;;;;5016615;28;20033;-67
2023/02/20 12:31:36;;;;;;;;;;;10.00;92.10;;;;;;5032918;28;20036;-68
2023/02/20 12:34:16;;;;;;;3.03;2.03;;;10.10;92.10;;;;;;5031043;28;19913;-68
2023/02/20 12:36:44;;;;;;;3.30;2.33;;;10.10;92.10;;;;;;5028408;28;20040;-68
2023/02/20 12:39:15;;;;;;;3.60;2.17;;;10.10;92.00;;;;;;5014225;28;20039;-68
2023/02/20 12:41:49;;;;;;;3.60;1.63;;;10.00;92.00;;;;;;5045117;28;20124;-68
2023/02/20 12:44:27;;;;;;;2.92;1.58;;;10.10;92.00;;;;;;5033585;28;20099;-67
2023/02/20 12:47:01;;;;;;;4.25;2.00;;;10.10;92.10;;;;;;5028768;28;20097;-68
2023/02/20 12:49:34;;;;;;;4.40;2.15;;;10.10;92.00;;;;;;5028798;28;20029;-68
2023/02/20 12:52:11;;;;;;;1.65;1.25;;;10.10;92.10;;;;;;5030450;28;20083;-68
2023/02/20 12:55:21;;;;;;;3.88;2.05;;;10.20;92.00;;;;;;5032561;28;20041;-67
2023/02/20 12:58:12;;;;;;;4.35;1.85;;;10.20;92.00;;;;;;5031775;28;20033;-67
2023/02/20 13:00:43;;;;;;;2.70;1.45;;;10.20;91.90;;;;;;5033818;28;20060;-68
2023/02/20 13:03:11;;;;;;;4.43;1.55;;;10.20;91.90;;;;;;5024940;28;20030;-67
2023/02/20 13:05:41;;;;;;;4.10;1.77;;;10.30;91.90;;;;;;5029384;28;20517;-67
2023/02/20 13:08:31;;;;;;;3.90;1.80;;;10.30;91.80;;;;;;5032045;28;20021;-68
2023/02/20 13:11:19;;;;;;;3.80;1.92;;;10.30;91.90;;;;;;5029276;28;20376;-68
2023/02/20 13:14:07;;;;;;;2.45;1.65;;;10.30;91.90;;;;;;5042382;28;20033;-68
2023/02/20 13:16:51;;;;;;;4.55;2.67;;;10.30;91.80;;;;;;5026782;28;20048;-68
2023/02/20 13:19:44;;;;;;;7.13;2.10;;;10.30;91.80;;;;;;5032972;28;20042;-65
2023/02/20 13:22:09;;;;;;;4.20;2.17;;;10.30;91.80;;;;;;5029584;28;20064;-67
2023/02/20 13:24:40;;;;;;;2.63;1.30;;;10.30;91.80;;;;;;5032680;28;20029;-68
2023/02/20 13:27:29;;;;;;;2.35;1.52;;;10.30;91.80;;;;;;5031828;28;20096;-68
2023/02/20 13:30:16;;;;;;;1.58;1.23;;;10.40;91.80;;;;;;5013218;28;20472;-68